Time;durP1;ratioP1;P1;durP2;ratioP2;P2;SDS_P1;SDS_P2;PMS_P1;PMS_P2;Temp;Humidity;BMP_temperature;BMP_pressure;BME280_temperature;BME280_humidity;BME280_pressure;Samples;Min_cycle;Max_cycle;Signal;HPM_P1;HPM_P2
2021/01/04 00:02:24;;;;;;;6.32;4.53;;;-0.60;99.90;;;;;;5045932;28;20037;-62
2021/01/04 00:05:12;;;;;;;5.68;4.05;;;-0.50;99.90;;;;;;5060073;28;20105;-62
2021/01/04 00:07:37;;;;;;;7.47;4.93;;;-0.50;99.90;;;;;;5069096;28;20049;-61
2021/01/04 00:10:14;;;;;;;7.22;4.68;;;-0.50;99.90;;;;;;5058690;28;20401;-62
2021/01/04 00:12:55;;;;;;;7.13;4.88;;;-0.50;99.90;;;;;;5052474;28;20094;-62
2021/01/04 00:15:56;;;;;;;6.32;4.70;;;-0.50;99.90;;;;;;5046431;28;20120;-59
2021/01/04 00:18:33;;;;;;;7.03;4.63;;;-0.40;99.90;;;;;;5057593;28;20174;-61
2021/01/04 00:21:08;;;;;;;8.05;4.90;;;-0.40;99.90;;;;;;5063338;28;20055;-61
2021/01/04 00:23:44;;;;;;;6.78;4.75;;;-0.40;99.90;;;;;;5060470;28;20041;-61
2021/01/04 00:26:15;;;;;;;;;;;-0.40;99.90;;;;;;5046553;28;20977;-60
2021/01/04 00:28:41;;;;;;;7.13;4.97;;;-0.40;99.90;;;;;;5046000;28;19917;-62
2021/01/04 00:31:19;;;;;;;6.43;4.20;;;-0.40;99.90;;;;;;5078091;28;20517;-61
2021/01/04 00:33:48;;;;;;;6.60;4.38;;;-0.40;99.90;;;;;;5037311;28;20401;-58
2021/01/04 00:36:29;;;;;;;5.55;4.13;;;-0.40;99.90;;;;;;5025963;28;20516;-61
2021/01/04 00:39:01;;;;;;;4.70;3.47;;;-0.30;99.90;;;;;;5044124;28;20034;-60
2021/01/04 00:41:36;;;;;;;6.03;4.28;;;-0.40;99.90;;;;;;5046743;28;20033;-58
2021/01/04 00:44:06;;;;;;;6.47;4.43;;;-0.50;99.90;;;;;;5050949;28;20079;-55
2021/01/04 00:46:37;;;;;;;7.05;4.68;;;-0.50;99.90;;;;;;5045658;28;20657;-58
2021/01/04 00:49:06;;;;;;;6.75;4.03;;;-0.40;99.90;;;;;;5046380;28;20041;-59
2021/01/04 00:51:47;;;;;;;6.30;4.30;;;-0.40;99.90;;;;;;5066206;28;20043;-61
2021/01/04 00:54:34;;;;;;;5.68;4.25;;;-0.50;99.90;;;;;;5066965;28;20058;-61
2021/01/04 00:57:42;;;;;;;7.60;4.93;;;-0.40;99.90;;;;;;5067132;28;20055;-60
2021/01/04 01:00:08;;;;;;;6.63;4.60;;;-0.40;99.90;;;;;;5050214;28;20041;-60
2021/01/04 01:03:13;;;;;;;6.10;4.40;;;-0.40;99.90;;;;;;5046036;28;20037;-60
2021/01/04 01:05:57;;;;;;;7.57;5.03;;;-0.40;99.90;;;;;;5038705;28;20124;-56
2021/01/04 01:08:29;;;;;;;7.45;5.05;;;-0.40;99.90;;;;;;5045691;28;20500;-61
2021/01/04 01:11:09;;;;;;;5.93;4.45;;;-0.40;99.90;;;;;;5046591;28;20068;-60
2021/01/04 01:14:11;;;;;;;7.13;5.00;;;-0.40;99.90;;;;;;5026733;28;20057;-60
2021/01/04 01:17:03;;;;;;;8.15;5.32;;;-0.40;99.90;;;;;;5025487;28;20049;-59
2021/01/04 01:19:45;;;;;;;6.30;4.45;;;-0.40;99.90;;;;;;5026234;28;20081;-60
2021/01/04 01:22:19;;;;;;;7.72;5.25;;;-0.40;99.90;;;;;;5026993;28;20841;-60
2021/01/04 01:24:45;;;;;;;9.40;5.82;;;-0.50;99.90;;;;;;5032421;28;20208;-59
2021/01/04 01:27:49;;;;;;;13.15;6.30;;;-0.50;99.90;;;;;;5045021;28;20045;-60
2021/01/04 01:30:59;;;;;;;9.23;5.75;;;-0.60;99.90;;;;;;5044399;28;20052;-61
2021/01/04 01:33:30;;;;;;;9.20;5.88;;;-0.50;99.90;;;;;;5035834;28;20525;-61
2021/01/04 01:36:14;;;;;;;10.80;6.75;;;-0.60;99.90;;;;;;5042075;28;20759;-58
2021/01/04 01:39:12;;;;;;;8.38;5.63;;;-0.50;99.90;;;;;;5056933;28;20044;-60
2021/01/04 01:42:25;;;;;;;9.50;6.15;;;-0.60;99.90;;;;;;5036363;28;20098;-61
2021/01/04 01:45:22;;;;;;;11.27;7.00;;;-0.50;99.90;;;;;;5031479;28;20077;-61
2021/01/04 01:48:04;;;;;;;9.52;6.35;;;-0.50;99.90;;;;;;5043220;28;20037;-58
2021/01/04 01:50:39;;;;;;;10.88;6.85;;;-0.50;99.90;;;;;;5056028;28;20094;-58
2021/01/04 01:53:26;;;;;;;11.00;6.47;;;-0.50;99.90;;;;;;5030494;28;20053;-60
2021/01/04 01:56:21;;;;;;;10.57;6.28;;;-0.50;99.90;;;;;;5040609;28;20045;-57
2021/01/04 01:59:23;;;;;;;12.38;7.18;;;-0.60;99.90;;;;;;5045177;28;20044;-60
2021/01/04 02:01:59;;;;;;;12.98;7.82;;;-0.50;99.90;;;;;;5044273;28;20041;-60
2021/01/04 02:05:01;;;;;;;13.00;8.10;;;-0.60;99.90;;;;;;5042912;28;20045;-59
2021/01/04 02:07:51;;;;;;;12.85;7.28;;;-0.60;99.90;;;;;;5034664;28;20044;-61
2021/01/04 02:10:25;;;;;;;14.75;8.55;;;-0.60;99.90;;;;;;5045148;28;20037;-61
2021/01/04 02:13:00;;;;;;;11.82;7.53;;;-0.70;99.90;;;;;;5044472;28;20103;-60
2021/01/04 02:15:33;;;;;;;15.65;9.10;;;-0.70;99.90;;;;;;5043910;28;20535;-60
2021/01/04 02:18:37;;;;;;;14.05;8.07;;;-0.70;99.90;;;;;;5045870;28;20098;-59
2021/01/04 02:21:40;;;;;;;14.15;8.52;;;-0.60;99.90;;;;;;5044967;28;20132;-60
2021/01/04 02:24:08;;;;;;;13.68;8.13;;;-0.70;99.90;;;;;;5044604;28;20049;-58
2021/01/04 02:26:36;;;;;;;13.52;7.97;;;-0.60;99.90;;;;;;5025228;28;20070;-60
2021/01/04 02:29:07;;;;;;;11.40;7.25;;;-0.60;99.90;;;;;;5039569;28;20041;-59
2021/01/04 02:31:36;;;;;;;13.32;7.85;;;-0.70;99.90;;;;;;5043973;28;20041;-60
2021/01/04 02:34:04;;;;;;;12.50;7.30;;;-0.60;99.90;;;;;;5045482;28;20123;-59
2021/01/04 02:36:35;;;;;;;12.20;7.90;;;-0.60;99.90;;;;;;5025460;28;20107;-60
2021/01/04 02:39:06;;;;;;;12.30;7.55;;;-0.60;99.90;;;;;;5055212;28;20040;-60
2021/01/04 02:41:40;;;;;;;11.50;7.25;;;-0.60;99.90;;;;;;5045450;28;20041;-58
2021/01/04 02:44:05;;;;;;;12.50;7.80;;;-0.60;99.90;;;;;;5044150;28;20080;-60
2021/01/04 02:46:33;;;;;;;11.90;7.03;;;-0.60;99.90;;;;;;5043767;28;20080;-59
2021/01/04 02:49:02;;;;;;;12.73;8.23;;;-0.60;99.90;;;;;;5048869;28;20067;-60
2021/01/04 02:51:35;;;;;;;12.60;7.68;;;-0.50;99.90;;;;;;5041235;28;20048;-58
2021/01/04 02:54:15;;;;;;;11.05;6.78;;;-0.60;99.90;;;;;;5057503;28;20042;-60
2021/01/04 02:56:58;;;;;;;11.15;7.30;;;-0.50;99.90;;;;;;5041960;28;20451;-59
2021/01/04 02:59:42;;;;;;;11.32;7.05;;;-0.60;99.90;;;;;;5044558;28;20049;-60
2021/01/04 03:02:16;;;;;;;11.38;6.88;;;-0.60;99.90;;;;;;5033141;28;20661;-60
2021/01/04 03:04:45;;;;;;;11.55;7.25;;;-0.70;99.90;;;;;;5025372;28;20049;-59
2021/01/04 03:07:26;;;;;;;12.65;7.30;;;-0.70;99.90;;;;;;5064964;28;20044;-57
2021/01/04 03:09:54;;;;;;;14.77;8.10;;;-0.60;99.90;;;;;;5049036;28;20047;-56
2021/01/04 03:12:31;;;;;;;12.70;8.10;;;-0.60;99.90;;;;;;5043352;28;20056;-58
2021/01/04 03:15:03;;;;;;;15.73;8.38;;;-0.60;99.90;;;;;;5044662;28;20107;-60
2021/01/04 03:17:52;;;;;;;12.50;7.60;;;-0.60;99.90;;;;;;5044400;28;20063;-60
2021/01/04 03:20:20;;;;;;;11.73;7.25;;;-0.50;99.90;;;;;;5043587;28;20129;-56
2021/01/04 03:22:47;;;;;;;15.77;9.02;;;-0.50;99.90;;;;;;5024885;28;20053;-61
2021/01/04 03:25:29;;;;;;;17.08;9.95;;;-0.60;99.90;;;;;;5024390;28;20067;-59
2021/01/04 03:27:55;;;;;;;17.20;9.63;;;-0.60;99.90;;;;;;5024969;28;20116;-59
2021/01/04 03:30:21;;;;;;;20.85;11.25;;;-0.60;99.90;;;;;;5024730;28;20483;-60
2021/01/04 03:32:46;;;;;;;19.65;10.55;;;-0.60;99.90;;;;;;5043432;28;20045;-59
2021/01/04 03:35:12;;;;;;;20.15;10.57;;;-0.60;99.90;;;;;;5044053;28;20098;-60
2021/01/04 03:37:38;;;;;;;18.83;11.05;;;-0.60;99.90;;;;;;5051956;28;20036;-58
2021/01/04 03:40:06;;;;;;;18.10;11.02;;;-0.60;99.90;;;;;;5047350;28;20037;-59
2021/01/04 03:42:32;;;;;;;25.88;11.68;;;-0.60;99.90;;;;;;5043192;28;20044;-59
2021/01/04 03:44:57;;;;;;;20.52;11.02;;;-0.70;99.90;;;;;;5044045;28;20059;-60
2021/01/04 03:47:23;;;;;;;19.05;10.35;;;-0.60;99.90;;;;;;5042333;28;20049;-51
2021/01/04 03:49:49;;;;;;;18.70;10.55;;;-0.70;99.90;;;;;;5045049;28;20033;-60
2021/01/04 03:52:15;;;;;;;24.00;12.10;;;-0.70;99.90;;;;;;5047580;28;20065;-59
2021/01/04 03:54:44;;;;;;;21.88;10.73;;;-0.70;99.90;;;;;;5047853;28;20037;-60
2021/01/04 03:57:10;;;;;;;19.08;11.10;;;-0.70;99.90;;;;;;5047009;28;20064;-59
2021/01/04 03:59:36;;;;;;;20.75;11.30;;;-0.70;99.90;;;;;;5047538;28;20080;-59
2021/01/04 04:02:03;;;;;;;17.75;10.65;;;-0.70;99.90;;;;;;5045346;28;20037;-57
2021/01/04 04:04:29;;;;;;;22.35;12.27;;;-0.70;99.90;;;;;;5048159;28;20056;-60
2021/01/04 04:06:54;;;;;;;24.38;12.27;;;-0.70;99.90;;;;;;5061720;28;20033;-60
2021/01/04 04:09:21;;;;;;;21.25;11.48;;;-0.70;99.90;;;;;;5045919;28;20079;-59
2021/01/04 04:11:47;;;;;;;19.17;10.63;;;-0.70;99.90;;;;;;5047721;28;20141;-59
2021/01/04 04:14:13;;;;;;;33.75;12.80;;;-0.70;99.90;;;;;;5031335;28;20516;-57
2021/01/04 04:16:39;;;;;;;30.85;13.50;;;-0.70;99.90;;;;;;5027447;28;20064;-60
2021/01/04 04:19:05;;;;;;;21.30;11.93;;;-0.70;99.90;;;;;;5041182;28;20040;-58
2021/01/04 04:21:32;;;;;;;23.75;12.13;;;-0.70;99.90;;;;;;5046524;28;20795;-57
2021/01/04 04:23:58;;;;;;;20.15;11.20;;;-0.70;99.90;;;;;;5046711;28;20110;-59
2021/01/04 04:26:26;;;;;;;22.52;11.43;;;-0.70;99.90;;;;;;5047337;28;20500;-57
2021/01/04 04:28:52;;;;;;;26.40;13.00;;;-0.60;99.90;;;;;;5034778;28;20041;-58
2021/01/04 04:31:18;;;;;;;23.33;11.68;;;-0.60;99.90;;;;;;5026834;28;20040;-56
2021/01/04 04:33:44;;;;;;;26.90;11.32;;;-0.60;99.90;;;;;;5027768;28;20041;-59
2021/01/04 04:36:23;;;;;;;24.65;12.35;;;-0.70;99.90;;;;;;5026229;28;20103;-56
2021/01/04 04:38:51;;;;;;;28.60;11.55;;;-0.60;99.90;;;;;;5048159;28;20048;-59
2021/01/04 04:41:35;;;;;;;24.55;11.88;;;-0.70;99.90;;;;;;5048261;28;20180;-59
2021/01/04 04:44:25;;;;;;;35.05;11.80;;;-0.70;99.90;;;;;;5051172;28;20055;-58
2021/01/04 04:47:21;;;;;;;84.80;15.65;;;-0.70;99.90;;;;;;5066100;28;20127;-58
2021/01/04 04:50:01;;;;;;;39.55;12.13;;;-0.70;99.90;;;;;;5050789;28;20051;-58
2021/01/04 04:52:30;;;;;;;24.08;12.05;;;-0.70;99.90;;;;;;5062820;28;20475;-57
2021/01/04 04:55:11;;;;;;;38.83;12.00;;;-0.70;99.90;;;;;;5028880;28;20053;-57
2021/01/04 04:57:46;;;;;;;69.82;13.15;;;-0.70;99.90;;;;;;5027599;28;20124;-58
2021/01/04 05:00:33;;;;;;;37.08;12.32;;;-0.60;99.90;;;;;;5044929;28;20063;-57
2021/01/04 05:03:21;;;;;;;78.78;13.93;;;-0.50;99.90;;;;;;5046731;28;20098;-59
2021/01/04 05:06:10;;;;;;;54.92;12.10;;;-0.60;99.90;;;;;;5047048;28;20040;-59
2021/01/04 05:08:57;;;;;;;111.82;17.17;;;-0.60;99.90;;;;;;5043773;28;20175;-59
2021/01/04 05:11:28;;;;;;;;;;;-0.60;99.90;;;;;;5047571;28;20036;-57
2021/01/04 05:13:55;;;;;;;26.60;11.23;;;-0.70;99.90;;;;;;5046955;28;20403;-59
2021/01/04 05:16:33;;;;;;;25.77;12.65;;;-0.60;99.90;;;;;;5045210;28;20790;-58
2021/01/04 05:19:27;;;;;;;28.90;13.63;;;-0.60;99.90;;;;;;5043302;28;20040;-58
2021/01/04 05:22:20;;;;;;;29.27;13.02;;;-0.60;99.90;;;;;;5043607;28;20069;-58
2021/01/04 05:25:06;;;;;;;20.33;12.00;;;-0.70;99.90;;;;;;5044279;28;20723;-58
2021/01/04 05:27:51;;;;;;;27.65;13.10;;;-0.60;99.90;;;;;;5044816;28;20045;-56
2021/01/04 05:30:31;;;;;;;17.77;10.63;;;-0.70;99.90;;;;;;5023087;28;20041;-59
2021/01/04 05:33:20;;;;;;;21.88;11.48;;;-0.70;99.90;;;;;;5025096;28;20049;-55
2021/01/04 05:35:48;;;;;;;21.35;11.82;;;-0.60;99.90;;;;;;5024442;28;20107;-58
2021/01/04 05:38:47;;;;;;;22.17;11.32;;;-0.60;99.90;;;;;;5042793;28;20058;-58
2021/01/04 05:41:17;;;;;;;17.27;9.90;;;-0.60;99.90;;;;;;5030140;28;20142;-59
2021/01/04 05:43:54;;;;;;;16.20;9.15;;;-0.60;99.90;;;;;;5046190;28;20048;-58
2021/01/04 05:46:35;;;;;;;16.65;9.68;;;-0.60;99.90;;;;;;5042613;28;20040;-58
2021/01/04 05:49:27;;;;;;;14.73;8.48;;;-0.50;99.90;;;;;;5034760;28;20540;-59
2021/01/04 05:51:53;;;;;;;14.50;8.30;;;-0.60;99.90;;;;;;5042110;28;20057;-58
2021/01/04 05:54:35;;;;;;;12.50;7.82;;;-0.50;99.90;;;;;;5026080;28;20061;-59
2021/01/04 05:57:18;;;;;;;11.68;7.25;;;-0.60;99.90;;;;;;5026478;28;20045;-58
2021/01/04 05:59:57;;;;;;;11.82;7.43;;;-0.50;99.90;;;;;;5040707;28;20731;-59
2021/01/04 06:02:22;;;;;;;11.90;7.25;;;-0.50;99.90;;;;;;5044413;28;20041;-58
2021/01/04 06:04:48;;;;;;;14.80;7.97;;;-0.50;99.90;;;;;;5046221;28;20714;-58
2021/01/04 06:07:14;;;;;;;13.93;8.00;;;-0.50;99.90;;;;;;5041633;28;20036;-58
2021/01/04 06:09:39;;;;;;;11.93;7.45;;;-0.60;99.90;;;;;;5044549;28;20037;-59
2021/01/04 06:12:14;;;;;;;12.30;7.20;;;-0.60;99.90;;;;;;5045715;28;20059;-58
2021/01/04 06:14:40;;;;;;;12.05;7.07;;;-0.50;99.90;;;;;;5045596;28;20059;-55
2021/01/04 06:17:30;;;;;;;11.50;7.55;;;-0.50;99.90;;;;;;5044460;28;20155;-59
2021/01/04 06:20:02;;;;;;;11.52;7.40;;;-0.50;99.90;;;;;;5045345;28;20048;-58
2021/01/04 06:22:31;;;;;;;12.68;7.30;;;-0.50;99.90;;;;;;5045578;28;20076;-58
2021/01/04 06:24:59;;;;;;;11.23;7.10;;;-0.50;99.90;;;;;;5044116;28;20044;-59
2021/01/04 06:27:41;;;;;;;11.45;7.20;;;-0.50;99.90;;;;;;5042977;28;20104;-59
2021/01/04 06:30:30;;;;;;;11.70;7.00;;;-0.50;99.90;;;;;;5043698;28;20041;-59
2021/01/04 06:33:09;;;;;;;10.43;6.35;;;-0.50;99.90;;;;;;5048770;28;20587;-59
2021/01/04 06:35:35;;;;;;;10.07;6.45;;;-0.60;99.90;;;;;;5044513;28;20068;-59
2021/01/04 06:38:10;;;;;;;10.23;6.80;;;-0.50;99.90;;;;;;5043661;28;20100;-59
2021/01/04 06:40:42;;;;;;;10.90;7.47;;;-0.50;99.90;;;;;;5035884;28;20032;-59
2021/01/04 06:43:13;;;;;;;10.30;7.03;;;-0.60;99.90;;;;;;5044542;28;20129;-59
2021/01/04 06:46:16;;;;;;;9.65;6.28;;;-0.60;99.90;;;;;;5030282;28;20038;-59
2021/01/04 06:48:49;;;;;;;10.05;6.63;;;-0.60;99.90;;;;;;5026871;28;20037;-59
2021/01/04 06:51:43;;;;;;;11.55;6.72;;;-0.50;99.90;;;;;;5045892;28;20618;-57
2021/01/04 06:54:17;;;;;;;11.82;6.70;;;-0.50;99.90;;;;;;5042911;28;20449;-59
2021/01/04 06:56:58;;;;;;;10.68;6.30;;;-0.50;99.90;;;;;;5040996;28;20599;-57
2021/01/04 07:00:01;;;;;;;10.75;6.85;;;-0.50;99.90;;;;;;5023142;28;20033;-58
2021/01/04 07:02:38;;;;;;;12.00;7.20;;;-0.50;99.90;;;;;;5023684;28;20048;-59
2021/01/04 07:05:16;;;;;;;10.43;6.70;;;-0.50;99.90;;;;;;5029459;28;20037;-59
2021/01/04 07:08:14;;;;;;;11.07;6.88;;;-0.40;99.90;;;;;;5064166;28;20037;-59
2021/01/04 07:10:58;;;;;;;10.05;6.60;;;-0.50;99.90;;;;;;5036804;28;20072;-64
2021/01/04 07:14:00;;;;;;;10.52;6.85;;;-0.50;99.90;;;;;;5044016;28;20049;-64
2021/01/04 07:17:10;;;;;;;10.77;6.85;;;-0.40;99.90;;;;;;5043701;28;20045;-62
2021/01/04 07:20:05;;;;;;;11.93;7.00;;;-0.40;99.90;;;;;;5035196;28;20068;-62
2021/01/04 07:23:00;;;;;;;11.95;7.43;;;-0.40;99.90;;;;;;5044268;28;20040;-62
2021/01/04 07:25:50;;;;;;;10.20;6.68;;;-0.50;99.90;;;;;;5046165;28;20041;-62
2021/01/04 07:28:35;;;;;;;10.10;6.65;;;-0.50;99.90;;;;;;5047399;28;20071;-62
2021/01/04 07:31:28;;;;;;;9.15;5.40;;;-0.40;99.90;;;;;;5028034;28;20092;-62
2021/01/04 07:34:01;;;;;;;9.15;5.93;;;-0.40;99.90;;;;;;5042540;28;20045;-61
2021/01/04 07:36:53;;;;;;;8.63;5.97;;;-0.30;99.90;;;;;;5047852;28;20080;-63
2021/01/04 07:39:36;;;;;;;8.02;5.28;;;-0.30;99.90;;;;;;5050826;28;20039;-62
2021/01/04 07:42:27;;;;;;;8.35;4.93;;;-0.30;99.90;;;;;;5048432;28;20041;-61
2021/01/04 07:45:18;;;;;;;8.00;5.40;;;-0.20;99.90;;;;;;5047772;28;20202;-62
2021/01/04 07:47:56;;;;;;;7.07;4.75;;;-0.20;99.90;;;;;;5047968;28;20099;-63
2021/01/04 07:50:44;;;;;;;6.80;4.80;;;-0.30;99.90;;;;;;5040378;28;20651;-63
2021/01/04 07:53:55;;;;;;;8.15;5.35;;;-0.30;99.90;;;;;;5058507;28;20054;-62
2021/01/04 07:56:59;;;;;;;7.70;4.95;;;-0.30;99.90;;;;;;5027477;28;20037;-62
2021/01/04 08:00:01;;;;;;;8.40;5.97;;;-0.30;99.90;;;;;;5035353;28;20125;-63
2021/01/04 08:03:02;;;;;;;8.30;5.40;;;-0.20;99.90;;;;;;5047621;28;20061;-60
2021/01/04 08:05:51;;;;;;;7.70;5.05;;;-0.20;99.90;;;;;;5054334;28;20064;-55
2021/01/04 08:08:38;;;;;;;7.63;4.93;;;-0.20;99.90;;;;;;5066537;28;20040;-58
2021/01/04 08:11:40;;;;;;;7.70;5.40;;;-0.20;99.90;;;;;;5043360;28;20036;-59
2021/01/04 08:14:40;;;;;;;8.65;5.40;;;-0.20;99.90;;;;;;5027625;28;20663;-59
2021/01/04 08:17:17;;;;;;;9.43;5.50;;;-0.20;99.90;;;;;;5027847;28;20107;-60
2021/01/04 08:19:45;;;;;;;9.60;6.43;;;-0.30;99.90;;;;;;5033381;28;20119;-61
2021/01/04 08:22:41;;;;;;;10.70;5.90;;;-0.30;99.90;;;;;;5046850;28;20040;-57
2021/01/04 08:25:12;;;;;;;10.10;5.73;;;-0.30;99.90;;;;;;5047268;28;20060;-64
2021/01/04 08:27:53;;;;;;;7.78;4.90;;;-0.30;99.90;;;;;;5047970;28;20048;-63
2021/01/04 08:30:37;;;;;;;7.32;4.82;;;-0.30;99.90;;;;;;5046275;28;20037;-62
2021/01/04 08:33:22;;;;;;;7.60;5.35;;;-0.30;99.90;;;;;;5050594;28;20137;-62
2021/01/04 08:35:48;;;;;;;9.10;5.45;;;-0.20;99.90;;;;;;5049790;28;20094;-61
2021/01/04 08:38:21;;;;;;;7.30;4.97;;;-0.30;99.90;;;;;;5046091;28;20045;-61
2021/01/04 08:41:00;;;;;;;6.72;4.47;;;-0.10;99.90;;;;;;5047240;28;20412;-59
2021/01/04 08:43:42;;;;;;;6.97;4.63;;;-0.10;99.90;;;;;;5050309;28;20049;-60
2021/01/04 08:46:22;;;;;;;7.78;5.30;;;-0.20;99.90;;;;;;5026829;28;20516;-59
2021/01/04 08:48:59;;;;;;;7.75;5.18;;;-0.10;99.90;;;;;;5038481;28;20110;-60
2021/01/04 08:51:24;;;;;;;7.45;4.68;;;-0.10;99.90;;;;;;5047146;28;20055;-59
2021/01/04 08:54:14;;;;;;;9.27;4.80;;;-0.10;99.90;;;;;;5041372;28;20042;-60
2021/01/04 08:56:44;;;;;;;8.02;5.35;;;-0.10;99.90;;;;;;5027621;28;20088;-59
2021/01/04 08:59:16;;;;;;;6.82;4.40;;;-0.30;99.90;;;;;;5027073;28;20727;-60
2021/01/04 09:01:58;;;;;;;8.82;5.47;;;-0.20;99.90;;;;;;5027209;28;20552;-58
2021/01/04 09:04:38;;;;;;;7.82;5.03;;;-0.30;99.90;;;;;;5027065;28;20059;-60
2021/01/04 09:07:21;;;;;;;6.85;4.60;;;-0.30;99.90;;;;;;5054887;28;20043;-56
2021/01/04 09:09:54;;;;;;;7.90;5.43;;;-0.30;99.90;;;;;;5045140;28;20064;-60
2021/01/04 09:12:38;;;;;;;6.90;4.80;;;-0.20;99.90;;;;;;5045602;28;20041;-59
2021/01/04 09:15:13;;;;;;;6.05;3.95;;;-0.20;99.90;;;;;;5046966;28;20041;-60
2021/01/04 09:17:43;;;;;;;10.00;5.65;;;-0.10;99.90;;;;;;5046091;28;20080;-60
2021/01/04 09:20:23;;;;;;;5.68;3.88;;;-0.20;99.90;;;;;;5046884;28;20428;-60
2021/01/04 09:23:11;;;;;;;5.95;3.95;;;-0.20;99.90;;;;;;5047228;28;20073;-59
2021/01/04 09:26:03;;;;;;;6.65;4.05;;;-0.10;99.90;;;;;;5045270;28;20145;-60
2021/01/04 09:28:39;;;;;;;6.35;4.18;;;-0.20;99.90;;;;;;5044806;28;20069;-59
2021/01/04 09:31:05;;;;;;;6.82;4.47;;;-0.10;99.90;;;;;;5046106;28;20577;-58
2021/01/04 09:33:31;;;;;;;7.20;4.68;;;-0.10;99.90;;;;;;5046900;28;20045;-59
2021/01/04 09:36:07;;;;;;;7.32;4.22;;;-0.10;99.90;;;;;;5046814;22;20037;-60
2021/01/04 09:38:32;;;;;;;4.93;3.37;;;-0.10;99.90;;;;;;5044821;28;20664;-60
2021/01/04 09:41:04;;;;;;;6.93;4.10;;;-0.10;99.90;;;;;;5046234;28;20371;-60
2021/01/04 09:43:34;;;;;;;6.05;4.32;;;-0.10;99.90;;;;;;5035982;28;20456;-60
2021/01/04 09:46:32;;;;;;;5.95;3.97;;;-0.10;99.90;;;;;;5025642;28;20053;-61
2021/01/04 09:49:02;;;;;;;6.00;3.80;;;0.00;99.90;;;;;;5024931;28;20033;-60
2021/01/04 09:51:37;;;;;;;6.07;4.00;;;0.00;99.90;;;;;;5044939;28;20052;-59
2021/01/04 09:54:05;;;;;;;5.95;3.78;;;0.10;99.90;;;;;;5045930;28;20049;-60
2021/01/04 09:56:37;;;;;;;6.20;3.95;;;0.00;99.90;;;;;;5046495;28;20080;-60
2021/01/04 09:59:11;;;;;;;7.10;4.38;;;0.00;99.90;;;;;;5045423;28;20041;-59
2021/01/04 10:01:51;;;;;;;7.30;3.70;;;0.10;99.90;;;;;;5045334;28;20041;-60
2021/01/04 10:04:43;;;;;;;5.68;3.72;;;0.10;99.90;;;;;;5046179;28;20044;-60
2021/01/04 10:07:13;;;;;;;5.85;3.85;;;0.00;99.90;;;;;;5016823;28;20045;-60
2021/01/04 10:09:43;;;;;;;5.15;3.55;;;0.10;99.90;;;;;;5038602;28;20040;-60
2021/01/04 10:12:13;;;;;;;4.63;3.20;;;0.10;99.90;;;;;;5045819;28;20033;-61
2021/01/04 10:14:38;;;;;;;5.15;3.30;;;0.10;99.90;;;;;;5045847;28;20053;-60
2021/01/04 10:17:05;;;;;;;5.15;3.33;;;0.20;99.90;;;;;;5044587;28;20040;-59
2021/01/04 10:19:45;;;;;;;6.68;3.65;;;0.10;99.90;;;;;;5046022;28;20088;-59
2021/01/04 10:22:15;;;;;;;4.47;3.30;;;0.10;99.90;;;;;;5045852;28;20036;-60
2021/01/04 10:24:46;;;;;;;5.82;3.63;;;0.10;99.90;;;;;;5045695;28;20041;-60
2021/01/04 10:27:16;;;;;;;9.52;4.13;;;0.10;99.90;;;;;;5052847;28;20049;-60
2021/01/04 10:29:46;;;;;;;6.10;3.45;;;0.00;99.90;;;;;;5058617;28;20044;-60
2021/01/04 10:32:32;;;;;;;5.68;3.70;;;-0.10;99.90;;;;;;5046978;28;20044;-61
2021/01/04 10:34:58;;;;;;;5.70;3.83;;;0.00;99.90;;;;;;5065237;28;20032;-60
2021/01/04 10:38:00;;;;;;;6.03;3.80;;;-0.10;99.90;;;;;;5057062;28;20501;-60
2021/01/04 10:40:26;;;;;;;5.97;3.92;;;-0.10;99.90;;;;;;5044485;28;20187;-59
2021/01/04 10:43:05;;;;;;;6.15;3.83;;;-0.10;99.90;;;;;;5033104;28;20045;-60
2021/01/04 10:45:39;;;;;;;5.45;3.67;;;-0.10;99.90;;;;;;5045659;28;20065;-61
2021/01/04 10:48:16;;;;;;;6.68;4.00;;;0.00;99.90;;;;;;5044865;28;20045;-61
2021/01/04 10:50:44;;;;;;;;;;;-0.10;99.90;;;;;;5046405;28;20044;-60
2021/01/04 10:53:13;;;;;;;5.10;3.63;;;0.00;99.90;;;;;;5045149;28;20015;-60
2021/01/04 10:55:58;;;;;;;8.43;3.92;;;0.00;99.90;;;;;;5044739;28;20052;-61
2021/01/04 10:58:31;;;;;;;6.70;3.85;;;0.00;99.90;;;;;;5045285;28;20033;-61
2021/01/04 11:01:09;;;;;;;6.78;4.55;;;-0.10;99.90;;;;;;5044639;28;20037;-58
2021/01/04 11:03:39;;;;;;;4.38;3.47;;;-0.20;99.90;;;;;;5045196;28;20037;-60
2021/01/04 11:06:25;;;;;;;5.28;3.78;;;-0.30;99.90;;;;;;5054672;28;20075;-59
2021/01/04 11:08:50;;;;;;;6.15;3.60;;;-0.30;99.90;;;;;;5043739;28;20036;-57
2021/01/04 11:11:39;;;;;;;5.30;3.67;;;-0.30;99.90;;;;;;5044767;28;20037;-59
2021/01/04 11:14:12;;;;;;;5.40;3.35;;;-0.20;99.90;;;;;;5045202;28;20068;-59
2021/01/04 11:16:44;;;;;;;9.38;6.15;;;-0.10;99.90;;;;;;5044394;28;20041;-59
2021/01/04 11:19:10;;;;;;;7.82;5.03;;;-0.20;99.90;;;;;;5044821;28;20044;-60
2021/01/04 11:21:43;;;;;;;5.68;4.05;;;-0.30;99.90;;;;;;5044336;28;20495;-60
2021/01/04 11:24:08;;;;;;;6.57;4.43;;;-0.30;99.90;;;;;;5045446;28;20779;-62
2021/01/04 11:26:34;;;;;;;6.00;4.20;;;-0.30;99.90;;;;;;5044957;28;20113;-57
2021/01/04 11:29:00;;;;;;;6.53;4.63;;;-0.30;99.90;;;;;;5044248;28;20532;-59
2021/01/04 11:31:29;;;;;;;8.38;5.68;;;-0.20;99.90;;;;;;5044432;28;20037;-61
2021/01/04 11:33:55;;;;;;;6.55;4.05;;;-0.20;99.90;;;;;;5045128;28;20048;-61
2021/01/04 11:36:20;;;;;;;6.65;4.15;;;-0.10;99.90;;;;;;5044707;28;20090;-62
2021/01/04 11:38:46;;;;;;;6.90;4.55;;;-0.20;99.90;;;;;;5055972;28;20389;-64
2021/01/04 11:41:13;;;;;;;7.55;4.78;;;-0.30;99.90;;;;;;5044507;28;20064;-63
2021/01/04 11:43:38;;;;;;;13.60;7.20;;;-0.20;99.90;;;;;;5045188;28;20120;-63
2021/01/04 11:46:04;;;;;;;9.15;5.28;;;-0.10;99.90;;;;;;5042630;28;20124;-63
2021/01/04 11:48:29;;;;;;;7.75;4.20;;;-0.10;99.90;;;;;;5044548;28;20419;-61
2021/01/04 11:50:55;;;;;;;5.88;4.07;;;0.00;99.90;;;;;;5026462;28;20448;-64
2021/01/04 11:53:20;;;;;;;6.57;4.32;;;0.00;99.90;;;;;;5045386;28;20548;-61
2021/01/04 11:55:46;;;;;;;6.22;4.00;;;0.00;99.90;;;;;;5043824;28;20040;-62
2021/01/04 11:58:12;;;;;;;29.92;16.33;;;0.00;99.90;;;;;;5044863;28;20112;-61
2021/01/04 12:00:37;;;;;;;7.93;5.05;;;-0.10;99.90;;;;;;5042188;28;20037;-59
2021/01/04 12:03:06;;;;;;;7.85;5.35;;;0.00;99.90;;;;;;5025568;28;20079;-60
2021/01/04 12:05:31;;;;;;;10.63;5.85;;;0.00;99.90;;;;;;5053682;28;20927;-58
2021/01/04 12:07:57;;;;;;;7.75;4.88;;;0.00;99.90;;;;;;5043619;28;20075;-58
2021/01/04 12:10:23;;;;;;;7.72;5.20;;;0.00;99.90;;;;;;5043616;28;20033;-59
2021/01/04 12:12:48;;;;;;;8.77;5.68;;;0.20;99.90;;;;;;5047728;28;20059;-59
2021/01/04 12:15:15;;;;;;;9.63;5.85;;;0.20;99.90;;;;;;5046809;28;20119;-56
2021/01/04 12:17:41;;;;;;;8.82;5.40;;;0.10;99.90;;;;;;5031574;28;20044;-59
2021/01/04 12:20:09;;;;;;;14.75;9.07;;;0.00;99.90;;;;;;5055732;28;20044;-61
2021/01/04 12:22:35;;;;;;;31.48;19.52;;;0.00;99.90;;;;;;5054067;28;20048;-62
2021/01/04 12:25:01;;;;;;;11.93;7.80;;;0.20;99.90;;;;;;5067409;28;20044;-61
2021/01/04 12:27:27;;;;;;;9.70;6.03;;;0.20;99.90;;;;;;5050811;28;20048;-61
2021/01/04 12:29:52;;;;;;;12.70;7.70;;;0.20;99.90;;;;;;5049525;28;20619;-61
2021/01/04 12:32:19;;;;;;;17.85;9.68;;;0.20;99.90;;;;;;5045514;28;20669;-60
2021/01/04 12:34:47;;;;;;;14.77;9.27;;;0.10;99.90;;;;;;5047062;28;20060;-60
2021/01/04 12:37:12;;;;;;;10.18;6.50;;;0.00;99.90;;;;;;5049626;28;20036;-59
2021/01/04 12:39:38;;;;;;;9.55;6.18;;;-0.10;99.90;;;;;;5054043;28;20473;-59
2021/01/04 12:42:04;;;;;;;9.43;5.75;;;0.00;99.90;;;;;;5046901;28;20858;-61
2021/01/04 12:44:30;;;;;;;12.45;6.18;;;0.10;99.90;;;;;;5047120;28;20037;-53
2021/01/04 12:46:56;;;;;;;7.60;5.05;;;0.10;99.90;;;;;;5046414;28;20037;-64
2021/01/04 12:49:24;;;;;;;9.60;4.60;;;0.00;99.90;;;;;;5029293;28;20080;-60
2021/01/04 12:51:52;;;;;;;8.93;5.43;;;0.10;99.90;;;;;;5046747;28;20044;-61
2021/01/04 12:54:19;;;;;;;7.15;4.70;;;0.10;99.90;;;;;;5042666;28;20061;-60
2021/01/04 12:56:46;;;;;;;6.90;4.68;;;0.10;99.90;;;;;;5045174;28;20512;-61
2021/01/04 12:59:12;;;;;;;8.50;5.07;;;0.10;99.90;;;;;;5045443;28;20098;-59
2021/01/04 13:01:39;;;;;;;7.05;4.70;;;0.10;99.90;;;;;;5049627;28;20045;-61
2021/01/04 13:04:05;;;;;;;10.38;6.15;;;0.20;99.90;;;;;;5046783;28;20049;-61
2021/01/04 13:06:33;;;;;;;7.47;5.32;;;0.00;99.90;;;;;;5045938;28;20051;-61
2021/01/04 13:08:59;;;;;;;7.50;4.90;;;0.10;99.90;;;;;;5045354;28;20496;-61
2021/01/04 13:11:25;;;;;;;8.52;5.57;;;0.10;99.90;;;;;;5046083;28;20075;-63
2021/01/04 13:13:51;;;;;;;7.78;4.97;;;0.10;99.90;;;;;;5046229;28;20073;-64
2021/01/04 13:16:17;;;;;;;6.45;4.18;;;0.30;99.90;;;;;;5045781;28;20107;-63
2021/01/04 13:18:42;;;;;;;8.18;5.00;;;0.30;99.90;;;;;;5028289;28;20055;-64
2021/01/04 13:21:14;;;;;;;8.10;5.15;;;0.30;99.90;;;;;;5045984;28;20052;-62
2021/01/04 13:23:39;;;;;;;6.13;4.32;;;0.30;99.90;;;;;;5046723;28;20045;-63
2021/01/04 13:26:05;;;;;;;8.30;4.47;;;0.20;99.90;;;;;;5044971;28;20045;-64
2021/01/04 13:28:30;;;;;;;5.72;3.83;;;0.10;99.90;;;;;;5044889;28;20863;-63
2021/01/04 13:30:56;;;;;;;6.68;4.45;;;0.10;99.90;;;;;;5044931;28;20060;-64